sensor_id;sensor_type;location;lat;lon;timestamp;pressure;altitude;pressure_sealevel;temperature;humidity
24302;BME280;12421;49.732;20.078;2023-12-22T00:02:11;93847.79;;;4.68;86.17
24302;BME280;12421;49.732;20.078;2023-12-22T00:12:14;93866.64;;;4.75;85.53
24302;BME280;12421;49.732;20.078;2023-12-22T00:22:18;93867.05;;;4.78;85.58
24302;BME280;12421;49.732;20.078;2023-12-22T00:32:21;93883.41;;;4.82;85.71
24302;BME280;12421;49.732;20.078;2023-12-22T00:42:25;93943.95;;;4.60;84.19
24302;BME280;12421;49.732;20.078;2023-12-22T00:59:47;93967.65;;;3.67;82.64
24302;BME280;12421;49.732;20.078;2023-12-22T01:09:51;93958.73;;;3.21;83.11
24302;BME280;12421;49.732;20.078;2023-12-22T01:19:54;93939.86;;;3.03;83.71
24302;BME280;12421;49.732;20.078;2023-12-22T01:29:57;93963.65;;;3.01;84.45
24302;BME280;12421;49.732;20.078;2023-12-22T01:40:01;93943.40;;;3.18;85.14
24302;BME280;12421;49.732;20.078;2023-12-22T01:50:04;93989.73;;;3.27;84.96
24302;BME280;12421;49.732;20.078;2023-12-22T02:00:08;93992.03;;;3.20;84.48
24302;BME280;12421;49.732;20.078;2023-12-22T02:10:15;93986.58;;;3.17;84.12
24302;BME280;12421;49.732;20.078;2023-12-22T02:20:19;93986.32;;;3.14;84.15
24302;BME280;12421;49.732;20.078;2023-12-22T02:30:26;93981.20;;;3.23;83.95
24302;BME280;12421;49.732;20.078;2023-12-22T02:40:32;93989.31;;;3.35;83.75
24302;BME280;12421;49.732;20.078;2023-12-22T02:50:36;93972.07;;;3.32;83.52
24302;BME280;12421;49.732;20.078;2023-12-22T03:00:39;93976.53;;;3.11;83.06
24302;BME280;12421;49.732;20.078;2023-12-22T03:10:43;93974.48;;;2.99;83.70
24302;BME280;12421;49.732;20.078;2023-12-22T03:20:46;93972.90;;;2.94;83.13
24302;BME280;12421;49.732;20.078;2023-12-22T03:30:49;93986.85;;;2.84;83.10
24302;BME280;12421;49.732;20.078;2023-12-22T03:40:52;93985.81;;;2.78;82.80
24302;BME280;12421;49.732;20.078;2023-12-22T03:50:56;93979.81;;;2.76;82.07
24302;BME280;12421;49.732;20.078;2023-12-22T04:00:59;93983.50;;;2.80;81.06
24302;BME280;12421;49.732;20.078;2023-12-22T04:11:02;94000.73;;;2.77;81.13
24302;BME280;12421;49.732;20.078;2023-12-22T04:21:06;94010.48;;;2.69;80.84
24302;BME280;12421;49.732;20.078;2023-12-22T04:31:09;94020.91;;;2.74;80.03
24302;BME280;12421;49.732;20.078;2023-12-22T04:41:12;94015.61;;;2.77;78.81
24302;BME280;12421;49.732;20.078;2023-12-22T04:51:15;93996.48;;;2.80;78.07
24302;BME280;12421;49.732;20.078;2023-12-22T05:01:18;93971.02;;;2.68;76.96
24302;BME280;12421;49.732;20.078;2023-12-22T05:11:22;93976.80;;;2.54;76.78
24302;BME280;12421;49.732;20.078;2023-12-22T05:21:26;93972.42;;;2.49;76.75
24302;BME280;12421;49.732;20.078;2023-12-22T05:31:31;93963.96;;;2.42;76.46
24302;BME280;12421;49.732;20.078;2023-12-22T05:41:35;93968.95;;;2.43;75.71
24302;BME280;12421;49.732;20.078;2023-12-22T05:51:42;93988.33;;;2.57;75.67
24302;BME280;12421;49.732;20.078;2023-12-22T06:01:46;93984.48;;;2.76;75.71
24302;BME280;12421;49.732;20.078;2023-12-22T06:11:49;94007.52;;;2.82;75.89
24302;BME280;12421;49.732;20.078;2023-12-22T06:21:52;94038.17;;;2.88;76.12
24302;BME280;12421;49.732;20.078;2023-12-22T06:31:56;94149.77;;;2.73;76.62
24302;BME280;12421;49.732;20.078;2023-12-22T06:42:00;94171.70;;;2.05;77.63
24302;BME280;12421;49.732;20.078;2023-12-22T06:52:04;94177.93;;;1.82;75.57
24302;BME280;12421;49.732;20.078;2023-12-22T07:02:07;94169.71;;;1.78;73.90
24302;BME280;12421;49.732;20.078;2023-12-22T07:12:22;94174.85;;;1.80;73.54
24302;BME280;12421;49.732;20.078;2023-12-22T07:22:25;94171.77;;;1.87;71.88
24302;BME280;12421;49.732;20.078;2023-12-22T07:32:29;94173.64;;;2.03;72.00
24302;BME280;12421;49.732;20.078;2023-12-22T07:42:33;94187.72;;;2.16;72.42
24302;BME280;12421;49.732;20.078;2023-12-22T07:52:36;94175.75;;;2.31;71.03
24302;BME280;12421;49.732;20.078;2023-12-22T08:02:44;94184.32;;;2.49;70.30
24302;BME280;12421;49.732;20.078;2023-12-22T08:12:47;94192.73;;;2.59;70.96
24302;BME280;12421;49.732;20.078;2023-12-22T08:22:50;94205.66;;;2.68;70.95
24302;BME280;12421;49.732;20.078;2023-12-22T08:32:56;94213.14;;;2.95;70.36
24302;BME280;12421;49.732;20.078;2023-12-22T08:43:01;94199.38;;;3.24;69.94
24302;BME280;12421;49.732;20.078;2023-12-22T08:53:04;94200.84;;;3.46;68.92
24302;BME280;12421;49.732;20.078;2023-12-22T09:03:08;94194.05;;;3.72;69.11
24302;BME280;12421;49.732;20.078;2023-12-22T09:13:11;94182.90;;;3.90;69.38
24302;BME280;12421;49.732;20.078;2023-12-22T09:23:14;94180.01;;;3.89;69.05
24302;BME280;12421;49.732;20.078;2023-12-22T09:33:17;94188.73;;;3.81;69.27
24302;BME280;12421;49.732;20.078;2023-12-22T09:43:22;94223.97;;;3.37;71.90
24302;BME280;12421;49.732;20.078;2023-12-22T09:53:28;94242.64;;;2.93;74.47
24302;BME280;12421;49.732;20.078;2023-12-22T10:03:34;94230.79;;;2.67;76.62
24302;BME280;12421;49.732;20.078;2023-12-22T10:13:41;94218.76;;;2.49;77.50
24302;BME280;12421;49.732;20.078;2023-12-22T10:23:44;94204.60;;;2.41;77.77
24302;BME280;12421;49.732;20.078;2023-12-22T10:33:48;94194.02;;;2.63;78.25
24302;BME280;12421;49.732;20.078;2023-12-22T10:43:51;94206.45;;;2.93;77.73
24302;BME280;12421;49.732;20.078;2023-12-22T10:53:56;94209.84;;;2.96;77.28
24302;BME280;12421;49.732;20.078;2023-12-22T11:04:03;94200.77;;;2.97;77.21
24302;BME280;12421;49.732;20.078;2023-12-22T11:14:07;94177.23;;;3.16;76.25
24302;BME280;12421;49.732;20.078;2023-12-22T11:24:13;94140.31;;;3.29;75.42
24302;BME280;12421;49.732;20.078;2023-12-22T11:34:18;94117.85;;;3.38;74.67
24302;BME280;12421;49.732;20.078;2023-12-22T11:44:22;94101.76;;;3.66;74.56
24302;BME280;12421;49.732;20.078;2023-12-22T12:04:53;94080.06;;;4.33;72.68
24302;BME280;12421;49.732;20.078;2023-12-22T12:15:13;94103.76;;;4.13;71.98
24302;BME280;12421;49.732;20.078;2023-12-22T12:25:23;94125.23;;;3.53;74.34
24302;BME280;12421;49.732;20.078;2023-12-22T12:35:40;94133.36;;;3.22;75.50
24302;BME280;12421;49.732;20.078;2023-12-22T12:45:52;94135.81;;;3.22;75.52
24302;BME280;12421;49.732;20.078;2023-12-22T12:55:56;94140.33;;;3.22;74.83
24302;BME280;12421;49.732;20.078;2023-12-22T13:06:09;94113.65;;;3.21;73.81
24302;BME280;12421;49.732;20.078;2023-12-22T13:16:13;94091.75;;;3.05;73.07
24302;BME280;12421;49.732;20.078;2023-12-22T13:26:20;94081.92;;;2.97;72.45
24302;BME280;12421;49.732;20.078;2023-12-22T13:36:23;94084.08;;;2.89;71.80
24302;BME280;12421;49.732;20.078;2023-12-22T13:46:27;94063.95;;;2.83;71.59
24302;BME280;12421;49.732;20.078;2023-12-22T13:56:38;94078.04;;;2.74;72.45
24302;BME280;12421;49.732;20.078;2023-12-22T14:06:43;94068.48;;;2.63;73.31
24302;BME280;12421;49.732;20.078;2023-12-22T14:16:47;94123.42;;;2.47;73.73
24302;BME280;12421;49.732;20.078;2023-12-22T14:26:54;94132.35;;;2.30;74.14
24302;BME280;12421;49.732;20.078;2023-12-22T14:37:00;94117.45;;;2.24;71.84
24302;BME280;12421;49.732;20.078;2023-12-22T14:47:05;94105.85;;;2.17;69.32
24302;BME280;12421;49.732;20.078;2023-12-22T14:57:11;94109.04;;;2.07;68.65
24302;BME280;12421;49.732;20.078;2023-12-22T15:07:18;94118.02;;;2.00;68.86
24302;BME280;12421;49.732;20.078;2023-12-22T15:17:22;94140.70;;;2.06;67.87
24302;BME280;12421;49.732;20.078;2023-12-22T15:27:26;94143.38;;;2.10;67.53
24302;BME280;12421;49.732;20.078;2023-12-22T15:37:30;94148.91;;;2.10;67.14
24302;BME280;12421;49.732;20.078;2023-12-22T15:47:37;94159.21;;;2.07;66.53
24302;BME280;12421;49.732;20.078;2023-12-22T15:57:41;94148.80;;;2.08;65.15
24302;BME280;12421;49.732;20.078;2023-12-22T16:07:45;94155.66;;;2.10;65.64
24302;BME280;12421;49.732;20.078;2023-12-22T16:17:51;94160.79;;;2.13;66.27
24302;BME280;12421;49.732;20.078;2023-12-22T16:27:54;94148.50;;;2.05;65.80
24302;BME280;12421;49.732;20.078;2023-12-22T16:37:58;94164.75;;;1.91;66.54
24302;BME280;12421;49.732;20.078;2023-12-22T16:48:04;94166.38;;;1.87;66.18
24302;BME280;12421;49.732;20.078;2023-12-22T16:58:07;94174.63;;;1.90;66.29
24302;BME280;12421;49.732;20.078;2023-12-22T17:08:11;94189.77;;;1.94;66.12
24302;BME280;12421;49.732;20.078;2023-12-22T17:18:16;94195.25;;;1.96;66.62
24302;BME280;12421;49.732;20.078;2023-12-22T17:28:20;94192.95;;;1.90;66.06
24302;BME280;12421;49.732;20.078;2023-12-22T17:38:26;94206.66;;;1.80;65.76
24302;BME280;12421;49.732;20.078;2023-12-22T17:48:30;94203.21;;;1.80;65.96
24302;BME280;12421;49.732;20.078;2023-12-22T17:58:34;94195.92;;;1.81;66.05
24302;BME280;12421;49.732;20.078;2023-12-22T18:08:37;94210.27;;;1.81;66.48
24302;BME280;12421;49.732;20.078;2023-12-22T18:18:41;94225.48;;;1.83;66.88
24302;BME280;12421;49.732;20.078;2023-12-22T18:28:44;94208.42;;;1.87;65.69
24302;BME280;12421;49.732;20.078;2023-12-22T18:38:48;94192.52;;;1.95;65.48
24302;BME280;12421;49.732;20.078;2023-12-22T18:48:54;94207.48;;;1.97;66.07
24302;BME280;12421;49.732;20.078;2023-12-22T18:58:58;94209.74;;;1.90;67.00
24302;BME280;12421;49.732;20.078;2023-12-22T19:09:01;94196.73;;;1.68;66.75
24302;BME280;12421;49.732;20.078;2023-12-22T19:19:06;94214.11;;;1.47;66.82
24302;BME280;12421;49.732;20.078;2023-12-22T19:29:10;94212.44;;;1.44;65.84
24302;BME280;12421;49.732;20.078;2023-12-22T19:39:14;94209.19;;;1.24;65.87
24302;BME280;12421;49.732;20.078;2023-12-22T19:49:20;94206.35;;;1.28;66.62
24302;BME280;12421;49.732;20.078;2023-12-22T19:59:26;94209.55;;;1.33;67.04
24302;BME280;12421;49.732;20.078;2023-12-22T20:09:30;94236.38;;;1.39;68.86
24302;BME280;12421;49.732;20.078;2023-12-22T20:19:33;94233.90;;;1.33;69.34
24302;BME280;12421;49.732;20.078;2023-12-22T20:29:37;94237.81;;;1.18;69.18
24302;BME280;12421;49.732;20.078;2023-12-22T20:39:42;94235.75;;;1.18;68.74
24302;BME280;12421;49.732;20.078;2023-12-22T20:49:46;94234.98;;;1.22;68.35
24302;BME280;12421;49.732;20.078;2023-12-22T20:59:50;94230.91;;;1.27;68.36
24302;BME280;12421;49.732;20.078;2023-12-22T21:09:54;94224.05;;;1.34;67.66
24302;BME280;12421;49.732;20.078;2023-12-22T21:19:57;94235.13;;;1.40;66.99
24302;BME280;12421;49.732;20.078;2023-12-22T21:30:01;94243.91;;;1.51;65.68
24302;BME280;12421;49.732;20.078;2023-12-22T21:40:07;94262.08;;;1.59;65.15
24302;BME280;12421;49.732;20.078;2023-12-22T21:50:15;94274.20;;;1.58;65.28
24302;BME280;12421;49.732;20.078;2023-12-22T22:00:19;94288.50;;;1.52;65.14
24302;BME280;12421;49.732;20.078;2023-12-22T22:10:22;94285.81;;;1.47;64.83
24302;BME280;12421;49.732;20.078;2023-12-22T22:20:26;94273.02;;;1.49;65.69
24302;BME280;12421;49.732;20.078;2023-12-22T22:30:32;94272.98;;;1.50;66.44
24302;BME280;12421;49.732;20.078;2023-12-22T22:40:36;94254.17;;;1.39;66.07
24302;BME280;12421;49.732;20.078;2023-12-22T22:50:39;94253.59;;;1.34;65.78
24302;BME280;12421;49.732;20.078;2023-12-22T23:00:43;94261.70;;;1.34;66.26
24302;BME280;12421;49.732;20.078;2023-12-22T23:10:46;94253.14;;;1.39;65.60
24302;BME280;12421;49.732;20.078;2023-12-22T23:20:50;94249.70;;;1.48;65.12
24302;BME280;12421;49.732;20.078;2023-12-22T23:30:53;94251.45;;;1.47;64.53
24302;BME280;12421;49.732;20.078;2023-12-22T23:40:57;94256.15;;;1.35;64.62
24302;BME280;12421;49.732;20.078;2023-12-22T23:51:00;94275.44;;;1.30;65.14
